SAS593 EKCH-EBBR
Flight info
| Callsign | SAS593 |
|---|---|
| Flight time | 1h 11m |
| Altitude | 36000 |
| Route | NEXEN2A NEXEN T503 GIMRU DCT MICOS DCT KEGAB DCT ABAMI Z717 NEREL/N0368F240 T855 AGENI/N0337F180 T855 BATTY BATTY7A |
| Aircraft | A319/M-VGDW/C |
Departure
| Time | 2026-04-25 20:29 |
|---|---|
| Airport | Copenhagen Kastrup Airport (EKCH) |
Arrival
| Time | 2026-04-25 21:40 |
|---|---|
| Airport | Brussels Airport (EBBR) |
| Time | Latitude | Longitude | Altitude | Speed | Heading |
|---|---|---|---|---|---|
| 2026-04-25 19:42 | 55.62712 | 12.64468 | 24 ft | 0 kts | 102° |
| 2026-04-25 20:15 | 55.62713 | 12.64462 | 24 ft | 2 kts | 102° |
| 2026-04-25 20:15 | 55.62718 | 12.64430 | 24 ft | 3 kts | 110° |
| 2026-04-25 20:15 | 55.62725 | 12.64397 | 25 ft | 3 kts | 105° |
| 2026-04-25 20:15 | 55.62727 | 12.64365 | 24 ft | 3 kts | 71° |
| 2026-04-25 20:16 | 55.62725 | 12.64347 | 24 ft | 3 kts | 35° |
| 2026-04-25 20:16 | 55.62720 | 12.64346 | 24 ft | 3 kts | 6° |
| 2026-04-25 20:16 | 55.62703 | 12.64337 | 24 ft | 3 kts | 22° |
| 2026-04-25 20:16 | 55.62684 | 12.64324 | 26 ft | 3 kts | 21° |
| 2026-04-25 20:17 | 55.62666 | 12.64311 | 27 ft | 3 kts | 21° |
| 2026-04-25 20:17 | 55.62647 | 12.64298 | 26 ft | 3 kts | 24° |
| 2026-04-25 20:17 | 55.62630 | 12.64283 | 27 ft | 3 kts | 31° |
| 2026-04-25 20:17 | 55.62614 | 12.64265 | 25 ft | 3 kts | 42° |
| 2026-04-25 20:18 | 55.62604 | 12.64245 | 26 ft | 2 kts | 71° |
| 2026-04-25 20:18 | 55.62601 | 12.64216 | 27 ft | 3 kts | 106° |
| 2026-04-25 20:18 | 55.62606 | 12.64185 | 25 ft | 3 kts | 113° |
| 2026-04-25 20:18 | 55.62614 | 12.64167 | 24 ft | 3 kts | 124° |
| 2026-04-25 20:19 | 55.62625 | 12.64137 | 25 ft | 3 kts | 123° |
| 2026-04-25 20:19 | 55.62630 | 12.64125 | 27 ft | 0 kts | 123° |
| 2026-04-25 20:21 | 55.62626 | 12.64136 | 25 ft | 4 kts | 123° |
| 2026-04-25 20:22 | 55.62600 | 12.64203 | 27 ft | 9 kts | 123° |
| 2026-04-25 20:22 | 55.62588 | 12.64236 | 26 ft | 10 kts | 123° |
| 2026-04-25 20:22 | 55.62508 | 12.64449 | 24 ft | 10 kts | 122° |
| 2026-04-25 20:22 | 55.62442 | 12.64473 | 24 ft | 12 kts | 193° |
| 2026-04-25 20:23 | 55.62350 | 12.64429 | 24 ft | 15 kts | 195° |
| 2026-04-25 20:23 | 55.62236 | 12.64396 | 23 ft | 19 kts | 173° |
| 2026-04-25 20:23 | 55.62102 | 12.64441 | 24 ft | 20 kts | 169° |
| 2026-04-25 20:23 | 55.61959 | 12.64488 | 25 ft | 22 kts | 169° |
| 2026-04-25 20:24 | 55.61798 | 12.64543 | 24 ft | 25 kts | 169° |
| 2026-04-25 20:24 | 55.61691 | 12.64568 | 24 ft | 15 kts | 188° |
| 2026-04-25 20:24 | 55.61594 | 12.64470 | 24 ft | 18 kts | 213° |
| 2026-04-25 20:24 | 55.61461 | 12.64318 | 24 ft | 26 kts | 212° |
| 2026-04-25 20:25 | 55.61301 | 12.64134 | 26 ft | 29 kts | 213° |
| 2026-04-25 20:25 | 55.61126 | 12.63932 | 24 ft | 28 kts | 213° |
| 2026-04-25 20:25 | 55.60973 | 12.63758 | 24 ft | 25 kts | 213° |
| 2026-04-25 20:25 | 55.60831 | 12.63594 | 26 ft | 26 kts | 213° |
| 2026-04-25 20:26 | 55.60673 | 12.63411 | 24 ft | 26 kts | 215° |
| 2026-04-25 20:26 | 55.60558 | 12.63240 | 24 ft | 17 kts | 221° |
| 2026-04-25 20:26 | 55.60472 | 12.63118 | 24 ft | 16 kts | 202° |
| 2026-04-25 20:26 | 55.60377 | 12.63215 | 24 ft | 17 kts | 131° |
| 2026-04-25 20:27 | 55.60338 | 12.63340 | 26 ft | 10 kts | 65° |
| 2026-04-25 20:27 | 55.60369 | 12.63393 | 28 ft | 0 kts | 41° |
| 2026-04-25 20:28 | 55.60389 | 12.63423 | 27 ft | 17 kts | 41° |
| 2026-04-25 20:29 | 55.60679 | 12.63872 | 27 ft | 91 kts | 41° |
| 2026-04-25 20:29 | 55.61326 | 12.64869 | 31 ft | 151 kts | 40° |
| 2026-04-25 20:29 | 55.62092 | 12.66102 | 757 ft | 142 kts | 36° |
| 2026-04-25 20:29 | 55.62795 | 12.67298 | 1552 ft | 139 kts | 36° |
| 2026-04-25 20:30 | 55.63484 | 12.68500 | 2233 ft | 143 kts | 32° |
| 2026-04-25 20:30 | 55.64212 | 12.69916 | 2639 ft | 176 kts | 54° |
| 2026-04-25 20:30 | 55.64387 | 12.72315 | 3017 ft | 223 kts | 93° |
| 2026-04-25 20:30 | 55.63662 | 12.74981 | 3549 ft | 263 kts | 126° |
| 2026-04-25 20:31 | 55.62099 | 12.76948 | 4345 ft | 288 kts | 158° |
| 2026-04-25 20:31 | 55.60103 | 12.77508 | 5384 ft | 297 kts | 181° |
| 2026-04-25 20:31 | 55.58053 | 12.77101 | 5817 ft | 296 kts | 199° |
| 2026-04-25 20:31 | 55.56235 | 12.75505 | 5947 ft | 289 kts | 222° |
| 2026-04-25 20:32 | 55.54708 | 12.73198 | 6183 ft | 294 kts | 226° |
| 2026-04-25 20:32 | 55.53185 | 12.70839 | 7236 ft | 292 kts | 226° |
| 2026-04-25 20:32 | 55.51639 | 12.68448 | 8370 ft | 294 kts | 227° |
| 2026-04-25 20:32 | 55.50098 | 12.66075 | 9486 ft | 296 kts | 228° |
| 2026-04-25 20:33 | 55.48528 | 12.63656 | 10339 ft | 308 kts | 229° |
| 2026-04-25 20:33 | 55.46864 | 12.61076 | 10827 ft | 328 kts | 229° |
| 2026-04-25 20:33 | 55.45117 | 12.58382 | 11617 ft | 337 kts | 229° |
| 2026-04-25 20:33 | 55.44546 | 12.57506 | 11893 ft | 339 kts | 229° |
| 2026-04-25 20:34 | 55.41529 | 12.52906 | 13334 ft | 349 kts | 231° |
| 2026-04-25 20:34 | 55.39679 | 12.50087 | 14127 ft | 355 kts | 231° |
| 2026-04-25 20:34 | 55.37799 | 12.47220 | 14890 ft | 360 kts | 232° |
| 2026-04-25 20:34 | 55.35895 | 12.44321 | 15640 ft | 364 kts | 233° |
| 2026-04-25 20:35 | 55.33966 | 12.41392 | 16386 ft | 369 kts | 234° |
| 2026-04-25 20:35 | 55.32010 | 12.38429 | 17125 ft | 374 kts | 235° |
| 2026-04-25 20:35 | 55.30030 | 12.35425 | 17869 ft | 378 kts | 236° |
| 2026-04-25 20:35 | 55.28028 | 12.32388 | 18552 ft | 383 kts | 236° |
| 2026-04-25 20:36 | 55.26003 | 12.29317 | 19171 ft | 387 kts | 236° |
| 2026-04-25 20:36 | 55.23952 | 12.26209 | 19773 ft | 392 kts | 236° |
| 2026-04-25 20:36 | 55.21877 | 12.23077 | 20377 ft | 397 kts | 236° |
| 2026-04-25 20:36 | 55.19761 | 12.19894 | 20971 ft | 402 kts | 236° |
| 2026-04-25 20:37 | 55.17626 | 12.16690 | 21407 ft | 407 kts | 236° |
| 2026-04-25 20:37 | 55.15469 | 12.13462 | 22064 ft | 409 kts | 235° |
| 2026-04-25 20:37 | 55.13323 | 12.10263 | 22704 ft | 412 kts | 235° |
| 2026-04-25 20:37 | 55.11136 | 12.06999 | 23318 ft | 415 kts | 235° |
| 2026-04-25 20:38 | 55.08936 | 12.03709 | 23864 ft | 419 kts | 235° |
| 2026-04-25 20:38 | 55.06708 | 12.00374 | 24372 ft | 422 kts | 235° |
| 2026-04-25 20:38 | 55.04471 | 11.97034 | 24857 ft | 426 kts | 235° |
| 2026-04-25 20:38 | 55.02205 | 11.93661 | 25333 ft | 430 kts | 234° |
| 2026-04-25 20:39 | 54.99917 | 11.90263 | 25801 ft | 434 kts | 234° |
| 2026-04-25 20:39 | 54.97613 | 11.86850 | 26263 ft | 438 kts | 234° |
| 2026-04-25 20:39 | 54.95281 | 11.83404 | 26735 ft | 441 kts | 234° |
| 2026-04-25 20:39 | 54.94490 | 11.82237 | 26832 ft | 442 kts | 234° |
| 2026-04-25 20:40 | 54.90574 | 11.76471 | 27697 ft | 445 kts | 233° |
| 2026-04-25 20:40 | 54.88197 | 11.72978 | 28174 ft | 448 kts | 233° |
| 2026-04-25 20:40 | 54.85839 | 11.69512 | 28623 ft | 451 kts | 233° |
| 2026-04-25 20:40 | 54.83438 | 11.65978 | 29075 ft | 455 kts | 233° |
| 2026-04-25 20:41 | 54.81011 | 11.62420 | 29520 ft | 460 kts | 232° |
| 2026-04-25 20:41 | 54.78489 | 11.58943 | 29959 ft | 467 kts | 230° |
| 2026-04-25 20:41 | 54.75861 | 11.55572 | 30346 ft | 473 kts | 228° |
| 2026-04-25 20:41 | 54.73158 | 11.52281 | 30737 ft | 478 kts | 227° |
| 2026-04-25 20:42 | 54.70410 | 11.49007 | 31090 ft | 479 kts | 226° |
| 2026-04-25 20:42 | 54.67666 | 11.45741 | 31565 ft | 478 kts | 226° |
| 2026-04-25 20:42 | 54.64937 | 11.42456 | 32030 ft | 477 kts | 226° |
| 2026-04-25 20:42 | 54.62232 | 11.39150 | 32564 ft | 474 kts | 227° |
| 2026-04-25 20:43 | 54.59561 | 11.35847 | 33013 ft | 472 kts | 227° |
| 2026-04-25 20:43 | 54.56897 | 11.32528 | 33517 ft | 471 kts | 226° |
| 2026-04-25 20:43 | 54.54243 | 11.29224 | 33940 ft | 472 kts | 226° |
| 2026-04-25 20:43 | 54.51572 | 11.25930 | 34146 ft | 473 kts | 226° |
| 2026-04-25 20:44 | 54.48888 | 11.22654 | 34566 ft | 472 kts | 226° |
| 2026-04-25 20:44 | 54.46209 | 11.19410 | 34986 ft | 470 kts | 225° |
| 2026-04-25 20:44 | 54.43546 | 11.16200 | 35476 ft | 467 kts | 225° |
| 2026-04-25 20:44 | 54.40887 | 11.12997 | 35889 ft | 466 kts | 224° |
| 2026-04-25 20:45 | 54.38232 | 11.09795 | 36039 ft | 465 kts | 224° |
| 2026-04-25 20:45 | 54.36486 | 11.07692 | 36070 ft | 460 kts | 224° |
| 2026-04-25 20:45 | 54.30443 | 11.00424 | 36069 ft | 455 kts | 225° |
| 2026-04-25 20:46 | 54.25244 | 10.94224 | 36007 ft | 455 kts | 224° |
| 2026-04-25 20:46 | 54.21014 | 10.88875 | 36068 ft | 449 kts | 228° |
| 2026-04-25 20:47 | 54.16280 | 10.82109 | 36086 ft | 445 kts | 230° |
| 2026-04-25 20:47 | 54.11575 | 10.75223 | 36091 ft | 446 kts | 230° |
| 2026-04-25 20:48 | 54.06800 | 10.68458 | 36091 ft | 447 kts | 229° |
| 2026-04-25 20:48 | 54.01977 | 10.61784 | 36066 ft | 447 kts | 228° |
| 2026-04-25 20:49 | 53.97156 | 10.55127 | 36065 ft | 446 kts | 227° |
| 2026-04-25 20:49 | 53.92345 | 10.48483 | 36095 ft | 446 kts | 227° |
| 2026-04-25 20:50 | 53.87538 | 10.41833 | 36104 ft | 446 kts | 227° |
| 2026-04-25 20:50 | 53.82728 | 10.35205 | 36101 ft | 445 kts | 227° |
| 2026-04-25 20:51 | 53.77920 | 10.28607 | 36095 ft | 444 kts | 226° |
| 2026-04-25 20:51 | 53.73122 | 10.22047 | 36126 ft | 442 kts | 226° |
| 2026-04-25 20:52 | 53.69147 | 10.16629 | 36137 ft | 442 kts | 226° |
| 2026-04-25 20:52 | 53.63585 | 10.09060 | 36142 ft | 441 kts | 226° |
| 2026-04-25 20:53 | 53.58797 | 10.02578 | 36142 ft | 441 kts | 226° |
| 2026-04-25 20:53 | 53.54025 | 9.96119 | 36124 ft | 440 kts | 226° |
| 2026-04-25 20:54 | 53.49255 | 9.89697 | 36137 ft | 439 kts | 226° |
| 2026-04-25 20:54 | 53.44485 | 9.83302 | 36144 ft | 438 kts | 226° |
| 2026-04-25 20:55 | 53.39723 | 9.76924 | 36134 ft | 438 kts | 226° |
| 2026-04-25 20:55 | 53.34969 | 9.70554 | 36134 ft | 438 kts | 226° |
| 2026-04-25 20:56 | 53.30205 | 9.64207 | 36132 ft | 437 kts | 225° |
| 2026-04-25 20:56 | 53.25451 | 9.57899 | 36137 ft | 436 kts | 225° |
| 2026-04-25 20:57 | 53.20696 | 9.51615 | 36139 ft | 436 kts | 225° |
| 2026-04-25 20:57 | 53.15946 | 9.45344 | 36142 ft | 435 kts | 225° |
| 2026-04-25 20:58 | 53.11196 | 9.39090 | 36149 ft | 435 kts | 225° |
| 2026-04-25 20:58 | 53.06444 | 9.32849 | 36158 ft | 435 kts | 225° |
| 2026-04-25 20:59 | 53.01694 | 9.26635 | 36162 ft | 435 kts | 225° |
| 2026-04-25 20:59 | 52.96962 | 9.20466 | 36164 ft | 435 kts | 225° |
| 2026-04-25 21:00 | 52.92979 | 9.15279 | 36160 ft | 435 kts | 225° |
| 2026-04-25 21:01 | 52.85077 | 9.05032 | 36171 ft | 433 kts | 224° |
| 2026-04-25 21:01 | 52.80343 | 8.98908 | 36175 ft | 432 kts | 224° |
| 2026-04-25 21:02 | 52.75600 | 8.92798 | 36172 ft | 432 kts | 224° |
| 2026-04-25 21:02 | 52.70859 | 8.86712 | 36164 ft | 431 kts | 224° |
| 2026-04-25 21:03 | 52.66126 | 8.80649 | 36143 ft | 431 kts | 223° |
| 2026-04-25 21:03 | 52.61396 | 8.74605 | 36159 ft | 430 kts | 223° |
| 2026-04-25 21:04 | 52.56677 | 8.68593 | 36166 ft | 429 kts | 223° |
| 2026-04-25 21:04 | 52.51959 | 8.62598 | 36172 ft | 429 kts | 223° |
| 2026-04-25 21:05 | 52.47243 | 8.56619 | 36168 ft | 428 kts | 223° |
| 2026-04-25 21:05 | 52.42520 | 8.50654 | 36152 ft | 428 kts | 222° |
| 2026-04-25 21:06 | 52.37799 | 8.44712 | 36134 ft | 428 kts | 222° |
| 2026-04-25 21:06 | 52.33072 | 8.38770 | 36148 ft | 428 kts | 221° |
| 2026-04-25 21:07 | 52.28341 | 8.32844 | 36153 ft | 428 kts | 221° |
| 2026-04-25 21:07 | 52.23591 | 8.26901 | 35915 ft | 434 kts | 221° |
| 2026-04-25 21:07 | 52.21198 | 8.23908 | 35574 ft | 433 kts | 221° |
| 2026-04-25 21:08 | 52.18811 | 8.20930 | 35255 ft | 431 kts | 221° |
| 2026-04-25 21:08 | 52.16434 | 8.17971 | 34938 ft | 429 kts | 221° |
| 2026-04-25 21:08 | 52.14095 | 8.15067 | 34629 ft | 427 kts | 221° |
| 2026-04-25 21:08 | 52.11734 | 8.12143 | 34320 ft | 425 kts | 221° |
| 2026-04-25 21:09 | 52.07040 | 8.06352 | 33634 ft | 421 kts | 221° |
| 2026-04-25 21:09 | 52.04716 | 8.03488 | 33284 ft | 418 kts | 221° |
| 2026-04-25 21:09 | 52.02405 | 8.00639 | 32917 ft | 416 kts | 221° |
| 2026-04-25 21:10 | 52.00104 | 7.97806 | 32564 ft | 414 kts | 221° |
| 2026-04-25 21:10 | 51.97816 | 7.94993 | 32223 ft | 411 kts | 221° |
| 2026-04-25 21:10 | 51.95544 | 7.92202 | 31888 ft | 409 kts | 221° |
| 2026-04-25 21:10 | 51.93282 | 7.89432 | 31559 ft | 406 kts | 221° |
| 2026-04-25 21:11 | 51.91032 | 7.86678 | 31236 ft | 404 kts | 221° |
| 2026-04-25 21:11 | 51.88800 | 7.83948 | 30913 ft | 401 kts | 221° |
| 2026-04-25 21:11 | 51.86577 | 7.81229 | 30591 ft | 399 kts | 221° |
| 2026-04-25 21:11 | 51.84368 | 7.78530 | 30266 ft | 396 kts | 221° |
| 2026-04-25 21:12 | 51.82206 | 7.75889 | 29909 ft | 393 kts | 221° |
| 2026-04-25 21:12 | 51.80002 | 7.73206 | 29538 ft | 390 kts | 221° |
| 2026-04-25 21:12 | 51.77837 | 7.70576 | 29162 ft | 388 kts | 221° |
| 2026-04-25 21:12 | 51.76414 | 7.68850 | 28955 ft | 386 kts | 221° |
| 2026-04-25 21:13 | 51.73580 | 7.65415 | 28556 ft | 384 kts | 221° |
| 2026-04-25 21:13 | 51.71452 | 7.62835 | 28261 ft | 382 kts | 221° |
| 2026-04-25 21:13 | 51.69563 | 7.59915 | 27954 ft | 372 kts | 237° |
| 2026-04-25 21:13 | 51.68261 | 7.56369 | 27667 ft | 365 kts | 247° |
| 2026-04-25 21:14 | 51.67109 | 7.52740 | 27392 ft | 364 kts | 247° |
| 2026-04-25 21:14 | 51.65958 | 7.49105 | 27105 ft | 363 kts | 247° |
| 2026-04-25 21:14 | 51.64812 | 7.45492 | 26824 ft | 361 kts | 247° |
| 2026-04-25 21:14 | 51.63668 | 7.41895 | 26544 ft | 360 kts | 247° |
| 2026-04-25 21:15 | 51.62530 | 7.38319 | 26269 ft | 359 kts | 247° |
| 2026-04-25 21:15 | 51.61396 | 7.34748 | 26008 ft | 358 kts | 247° |
| 2026-04-25 21:15 | 51.60265 | 7.31196 | 25741 ft | 356 kts | 247° |
| 2026-04-25 21:15 | 51.59135 | 7.27653 | 25466 ft | 355 kts | 247° |
| 2026-04-25 21:16 | 51.58008 | 7.24132 | 25220 ft | 354 kts | 246° |
| 2026-04-25 21:16 | 51.56883 | 7.20625 | 25189 ft | 352 kts | 246° |
| 2026-04-25 21:16 | 51.55758 | 7.17126 | 25201 ft | 352 kts | 246° |
| 2026-04-25 21:16 | 51.54634 | 7.13627 | 25202 ft | 352 kts | 246° |
| 2026-04-25 21:17 | 51.53512 | 7.10133 | 24989 ft | 353 kts | 246° |
| 2026-04-25 21:17 | 51.52385 | 7.06641 | 24660 ft | 350 kts | 246° |
| 2026-04-25 21:17 | 51.51270 | 7.03193 | 24393 ft | 347 kts | 246° |
| 2026-04-25 21:17 | 51.50161 | 6.99757 | 24091 ft | 347 kts | 246° |
| 2026-04-25 21:18 | 51.49053 | 6.96324 | 23738 ft | 345 kts | 246° |
| 2026-04-25 21:18 | 51.47951 | 6.92913 | 23320 ft | 343 kts | 246° |
| 2026-04-25 21:18 | 51.46868 | 6.89575 | 22926 ft | 341 kts | 246° |
| 2026-04-25 21:18 | 51.45773 | 6.86202 | 22523 ft | 339 kts | 246° |
| 2026-04-25 21:19 | 51.44689 | 6.82866 | 22218 ft | 337 kts | 246° |
| 2026-04-25 21:19 | 51.43603 | 6.79534 | 22197 ft | 338 kts | 246° |
| 2026-04-25 21:19 | 51.42515 | 6.76196 | 22197 ft | 338 kts | 246° |
| 2026-04-25 21:19 | 51.41422 | 6.72848 | 21935 ft | 338 kts | 246° |
| 2026-04-25 21:20 | 51.40336 | 6.69526 | 21638 ft | 336 kts | 246° |
| 2026-04-25 21:20 | 51.39970 | 6.68408 | 21546 ft | 335 kts | 246° |
| 2026-04-25 21:20 | 51.38178 | 6.62945 | 21073 ft | 333 kts | 246° |
| 2026-04-25 21:20 | 51.37101 | 6.59668 | 20799 ft | 331 kts | 246° |
| 2026-04-25 21:21 | 51.36029 | 6.56411 | 20534 ft | 331 kts | 246° |
| 2026-04-25 21:21 | 51.34962 | 6.53163 | 20202 ft | 329 kts | 246° |
| 2026-04-25 21:21 | 51.33896 | 6.49923 | 19867 ft | 328 kts | 245° |
| 2026-04-25 21:21 | 51.32832 | 6.46697 | 19524 ft | 327 kts | 245° |
| 2026-04-25 21:22 | 51.31770 | 6.43481 | 19208 ft | 326 kts | 245° |
| 2026-04-25 21:22 | 51.30709 | 6.40273 | 18901 ft | 326 kts | 245° |
| 2026-04-25 21:22 | 51.29655 | 6.37086 | 18614 ft | 325 kts | 245° |
| 2026-04-25 21:22 | 51.28600 | 6.33888 | 18307 ft | 324 kts | 245° |
| 2026-04-25 21:23 | 51.27546 | 6.30702 | 17985 ft | 323 kts | 245° |
| 2026-04-25 21:23 | 51.26509 | 6.27583 | 17666 ft | 322 kts | 245° |
| 2026-04-25 21:23 | 51.25463 | 6.24440 | 17353 ft | 320 kts | 245° |
| 2026-04-25 21:23 | 51.24418 | 6.21311 | 17040 ft | 319 kts | 245° |
| 2026-04-25 21:24 | 51.23375 | 6.18194 | 16718 ft | 317 kts | 245° |
| 2026-04-25 21:24 | 51.22339 | 6.15103 | 16436 ft | 316 kts | 245° |
| 2026-04-25 21:24 | 51.21304 | 6.12009 | 16161 ft | 315 kts | 245° |
| 2026-04-25 21:24 | 51.20275 | 6.08932 | 15883 ft | 314 kts | 245° |
| 2026-04-25 21:25 | 51.19249 | 6.05869 | 15589 ft | 312 kts | 245° |
| 2026-04-25 21:25 | 51.18226 | 6.02822 | 15348 ft | 311 kts | 245° |
| 2026-04-25 21:25 | 51.17205 | 5.99788 | 15089 ft | 310 kts | 245° |
| 2026-04-25 21:25 | 51.16188 | 5.96775 | 14844 ft | 308 kts | 245° |
| 2026-04-25 21:26 | 51.15173 | 5.93766 | 14605 ft | 307 kts | 245° |
| 2026-04-25 21:26 | 51.14161 | 5.90766 | 14367 ft | 306 kts | 245° |
| 2026-04-25 21:26 | 51.13155 | 5.87787 | 14131 ft | 305 kts | 245° |
| 2026-04-25 21:26 | 51.12150 | 5.84815 | 13878 ft | 304 kts | 245° |
| 2026-04-25 21:27 | 51.11150 | 5.81857 | 13607 ft | 303 kts | 245° |
| 2026-04-25 21:27 | 51.10151 | 5.78913 | 13362 ft | 302 kts | 245° |
| 2026-04-25 21:27 | 51.09153 | 5.75979 | 13097 ft | 301 kts | 244° |
| 2026-04-25 21:27 | 51.08156 | 5.73051 | 12830 ft | 300 kts | 244° |
| 2026-04-25 21:28 | 51.07162 | 5.70135 | 12521 ft | 299 kts | 244° |
| 2026-04-25 21:28 | 51.06174 | 5.67234 | 12184 ft | 298 kts | 244° |
| 2026-04-25 21:28 | 51.05191 | 5.64349 | 11857 ft | 296 kts | 244° |
| 2026-04-25 21:28 | 51.04209 | 5.61474 | 11532 ft | 295 kts | 244° |
| 2026-04-25 21:29 | 51.03244 | 5.58659 | 11209 ft | 294 kts | 244° |
| 2026-04-25 21:29 | 51.02271 | 5.55812 | 10891 ft | 292 kts | 244° |
| 2026-04-25 21:29 | 51.01302 | 5.52971 | 10578 ft | 291 kts | 244° |
| 2026-04-25 21:29 | 51.00341 | 5.50152 | 10267 ft | 290 kts | 244° |
| 2026-04-25 21:30 | 50.99383 | 5.47336 | 9952 ft | 289 kts | 244° |
| 2026-04-25 21:30 | 50.98430 | 5.44532 | 9602 ft | 288 kts | 244° |
| 2026-04-25 21:30 | 50.97479 | 5.41743 | 9259 ft | 287 kts | 244° |
| 2026-04-25 21:30 | 50.96853 | 5.39906 | 9036 ft | 286 kts | 244° |
| 2026-04-25 21:31 | 50.96067 | 5.35983 | 8586 ft | 278 kts | 272° |
| 2026-04-25 21:31 | 50.96446 | 5.33015 | 8217 ft | 273 kts | 291° |
| 2026-04-25 21:31 | 50.97101 | 5.30188 | 7840 ft | 272 kts | 293° |
| 2026-04-25 21:31 | 50.97774 | 5.27374 | 7406 ft | 273 kts | 293° |
| 2026-04-25 21:32 | 50.98389 | 5.24544 | 6968 ft | 272 kts | 285° |
| 2026-04-25 21:32 | 50.98470 | 5.21543 | 6525 ft | 272 kts | 271° |
| 2026-04-25 21:32 | 50.98465 | 5.19557 | 6217 ft | 271 kts | 272° |
| 2026-04-25 21:32 | 50.98478 | 5.16572 | 5751 ft | 270 kts | 273° |
| 2026-04-25 21:33 | 50.98496 | 5.13598 | 5291 ft | 269 kts | 273° |
| 2026-04-25 21:33 | 50.98513 | 5.10645 | 4955 ft | 267 kts | 273° |
| 2026-04-25 21:33 | 50.98532 | 5.07694 | 4667 ft | 267 kts | 273° |
| 2026-04-25 21:33 | 50.98549 | 5.04762 | 4359 ft | 265 kts | 273° |
| 2026-04-25 21:34 | 50.98563 | 5.01834 | 4064 ft | 263 kts | 273° |
| 2026-04-25 21:34 | 50.98571 | 4.98991 | 4020 ft | 250 kts | 273° |
| 2026-04-25 21:34 | 50.98573 | 4.96313 | 4047 ft | 237 kts | 273° |
| 2026-04-25 21:34 | 50.98573 | 4.93727 | 4050 ft | 233 kts | 273° |
| 2026-04-25 21:35 | 50.98556 | 4.91157 | 4047 ft | 234 kts | 269° |
| 2026-04-25 21:35 | 50.98196 | 4.88632 | 4049 ft | 236 kts | 254° |
| 2026-04-25 21:35 | 50.97640 | 4.86173 | 4058 ft | 237 kts | 252° |
| 2026-04-25 21:35 | 50.97071 | 4.83718 | 4056 ft | 236 kts | 252° |
| 2026-04-25 21:36 | 50.96510 | 4.81258 | 3948 ft | 237 kts | 252° |
| 2026-04-25 21:36 | 50.95952 | 4.78801 | 3669 ft | 237 kts | 253° |
| 2026-04-25 21:36 | 50.95405 | 4.76399 | 3366 ft | 232 kts | 253° |
| 2026-04-25 21:36 | 50.94859 | 4.74008 | 3055 ft | 228 kts | 253° |
| 2026-04-25 21:37 | 50.94334 | 4.71709 | 2751 ft | 215 kts | 253° |
| 2026-04-25 21:37 | 50.93999 | 4.70242 | 2565 ft | 206 kts | 252° |
| 2026-04-25 21:37 | 50.93377 | 4.67520 | 2242 ft | 189 kts | 252° |
| 2026-04-25 21:37 | 50.92942 | 4.65619 | 1960 ft | 178 kts | 252° |
| 2026-04-25 21:38 | 50.92535 | 4.63841 | 1723 ft | 165 kts | 253° |
| 2026-04-25 21:38 | 50.92157 | 4.62195 | 1497 ft | 153 kts | 253° |
| 2026-04-25 21:38 | 50.91806 | 4.60661 | 1307 ft | 145 kts | 253° |
| 2026-04-25 21:38 | 50.91467 | 4.59183 | 1108 ft | 142 kts | 253° |
| 2026-04-25 21:39 | 50.91132 | 4.57725 | 932 ft | 139 kts | 252° |
| 2026-04-25 21:39 | 50.90805 | 4.56292 | 716 ft | 137 kts | 252° |
| 2026-04-25 21:39 | 50.90486 | 4.54893 | 527 ft | 134 kts | 251° |
| 2026-04-25 21:39 | 50.90172 | 4.53524 | 348 ft | 131 kts | 252° |
| 2026-04-25 21:40 | 50.89863 | 4.52182 | 198 ft | 129 kts | 251° |
| 2026-04-25 21:40 | 50.89577 | 4.50950 | 174 ft | 103 kts | 248° |
| 2026-04-25 21:40 | 50.89392 | 4.50152 | 177 ft | 51 kts | 249° |
| 2026-04-25 21:40 | 50.89332 | 4.49801 | 178 ft | 25 kts | 275° |
| 2026-04-25 21:41 | 50.89400 | 4.49607 | 169 ft | 19 kts | 307° |
| 2026-04-25 21:41 | 50.89453 | 4.49498 | 166 ft | 13 kts | 308° |
| 2026-04-25 21:41 | 50.89518 | 4.49362 | 163 ft | 18 kts | 304° |
| 2026-04-25 21:41 | 50.89556 | 4.49282 | 159 ft | 0 kts | 307° |
| 2026-04-25 21:42 | 50.89564 | 4.49265 | 158 ft | 0 kts | 307° |
| 2026-04-25 21:42 | 50.89565 | 4.49262 | 158 ft | 2 kts | 307° |
| 2026-04-25 21:42 | 50.89565 | 4.49261 | 158 ft | 0 kts | 307° |
| 2026-04-25 21:43 | 50.89579 | 4.49232 | 157 ft | 12 kts | 307° |
| 2026-04-25 21:43 | 50.89645 | 4.49147 | 153 ft | 14 kts | 353° |
| 2026-04-25 21:43 | 50.89766 | 4.49194 | 146 ft | 22 kts | 14° |
| 2026-04-25 21:44 | 50.89895 | 4.49245 | 138 ft | 22 kts | 14° |
| 2026-04-25 21:44 | 50.90058 | 4.49313 | 128 ft | 17 kts | 14° |
| 2026-04-25 21:44 | 50.90258 | 4.49395 | 127 ft | 8 kts | 14° |
| 2026-04-25 21:45 | 50.90306 | 4.49407 | 126 ft | 7 kts | 343° |
| 2026-04-25 21:45 | 50.90339 | 4.49367 | 124 ft | 10 kts | 320° |
| 2026-04-25 21:45 | 50.90449 | 4.49279 | 121 ft | 15 kts | 337° |
| 2026-04-25 21:45 | 50.90530 | 4.49218 | 120 ft | 13 kts | 335° |
| 2026-04-25 21:46 | 50.90606 | 4.49164 | 121 ft | 11 kts | 336° |
| 2026-04-25 21:46 | 50.90635 | 4.49045 | 119 ft | 11 kts | 246° |
| 2026-04-25 21:46 | 50.90617 | 4.48979 | 119 ft | 8 kts | 248° |
| 2026-04-25 21:46 | 50.90582 | 4.48857 | 120 ft | 17 kts | 246° |
| 2026-04-25 21:47 | 50.90527 | 4.48664 | 119 ft | 15 kts | 246° |
| 2026-04-25 21:47 | 50.90482 | 4.48512 | 121 ft | 13 kts | 245° |
| 2026-04-25 21:47 | 50.90454 | 4.48438 | 120 ft | 8 kts | 215° |
| 2026-04-25 21:47 | 50.90398 | 4.48467 | 119 ft | 6 kts | 156° |
| 2026-04-25 21:48 | 50.90378 | 4.48481 | 120 ft | 2 kts | 155° |
| 2026-04-25 21:48 | 50.90370 | 4.48487 | 117 ft | 0 kts | 155° |